sensor_id;sensor_type;location;lat;lon;timestamp;P1;durP1;ratioP1;P2;durP2;ratioP2
13252;SDS011;6693;54.370;10.132;2022-07-23T00:00:54;2.85;;;1.70;;
13252;SDS011;6693;54.370;10.132;2022-07-23T00:02:55;1.63;;;1.52;;
13252;SDS011;6693;54.370;10.132;2022-07-23T00:04:57;3.58;;;1.77;;
13252;SDS011;6693;54.370;10.132;2022-07-23T00:06:59;2.85;;;1.73;;
13252;SDS011;6693;54.370;10.132;2022-07-23T00:09:00;2.95;;;2.22;;
13252;SDS011;6693;54.370;10.132;2022-07-23T00:11:02;5.38;;;1.85;;
13252;SDS011;6693;54.370;10.132;2022-07-23T00:13:05;4.45;;;2.20;;
13252;SDS011;6693;54.370;10.132;2022-07-23T00:15:07;5.25;;;2.20;;
13252;SDS011;6693;54.370;10.132;2022-07-23T00:17:10;1.98;;;1.70;;
13252;SDS011;6693;54.370;10.132;2022-07-23T00:19:11;3.53;;;2.20;;
13252;SDS011;6693;54.370;10.132;2022-07-23T00:21:13;3.22;;;2.05;;
13252;SDS011;6693;54.370;10.132;2022-07-23T00:23:15;5.03;;;4.43;;
13252;SDS011;6693;54.370;10.132;2022-07-23T00:25:18;2.15;;;1.95;;
13252;SDS011;6693;54.370;10.132;2022-07-23T00:27:19;2.80;;;1.92;;
13252;SDS011;6693;54.370;10.132;2022-07-23T00:29:22;4.80;;;2.30;;
13252;SDS011;6693;54.370;10.132;2022-07-23T00:31:24;3.45;;;1.85;;
13252;SDS011;6693;54.370;10.132;2022-07-23T00:33:27;1.75;;;1.65;;
13252;SDS011;6693;54.370;10.132;2022-07-23T00:35:29;2.47;;;2.00;;
13252;SDS011;6693;54.370;10.132;2022-07-23T00:37:32;2.63;;;1.70;;
13252;SDS011;6693;54.370;10.132;2022-07-23T00:39:34;4.97;;;1.90;;
13252;SDS011;6693;54.370;10.132;2022-07-23T00:41:35;3.55;;;1.58;;
13252;SDS011;6693;54.370;10.132;2022-07-23T00:43:37;2.38;;;1.90;;
13252;SDS011;6693;54.370;10.132;2022-07-23T00:45:40;2.10;;;1.92;;
13252;SDS011;6693;54.370;10.132;2022-07-23T00:47:42;2.17;;;1.70;;
13252;SDS011;6693;54.370;10.132;2022-07-23T00:49:43;3.22;;;1.83;;
13252;SDS011;6693;54.370;10.132;2022-07-23T00:51:45;2.55;;;1.70;;
13252;SDS011;6693;54.370;10.132;2022-07-23T00:53:47;2.70;;;1.75;;
13252;SDS011;6693;54.370;10.132;2022-07-23T00:55:49;2.40;;;1.90;;
13252;SDS011;6693;54.370;10.132;2022-07-23T00:57:51;3.65;;;1.88;;
13252;SDS011;6693;54.370;10.132;2022-07-23T00:59:56;2.17;;;1.65;;
13252;SDS011;6693;54.370;10.132;2022-07-23T01:01:59;3.35;;;1.80;;
13252;SDS011;6693;54.370;10.132;2022-07-23T01:04:00;2.05;;;1.70;;
13252;SDS011;6693;54.370;10.132;2022-07-23T01:06:02;2.80;;;1.90;;
13252;SDS011;6693;54.370;10.132;2022-07-23T01:08:05;2.65;;;1.90;;
13252;SDS011;6693;54.370;10.132;2022-07-23T01:10:07;3.95;;;2.10;;
13252;SDS011;6693;54.370;10.132;2022-07-23T01:12:23;4.40;;;2.15;;
13252;SDS011;6693;54.370;10.132;2022-07-23T01:14:24;4.28;;;3.80;;
13252;SDS011;6693;54.370;10.132;2022-07-23T01:16:26;2.85;;;2.47;;
13252;SDS011;6693;54.370;10.132;2022-07-23T01:18:29;2.47;;;2.00;;
13252;SDS011;6693;54.370;10.132;2022-07-23T01:20:31;3.05;;;1.90;;
13252;SDS011;6693;54.370;10.132;2022-07-23T01:22:34;2.55;;;2.00;;
13252;SDS011;6693;54.370;10.132;2022-07-23T01:24:36;6.00;;;2.20;;
13252;SDS011;6693;54.370;10.132;2022-07-23T01:26:38;3.03;;;2.10;;
13252;SDS011;6693;54.370;10.132;2022-07-23T01:28:46;2.58;;;2.20;;
13252;SDS011;6693;54.370;10.132;2022-07-23T01:30:47;2.97;;;2.03;;
13252;SDS011;6693;54.370;10.132;2022-07-23T01:32:49;2.85;;;2.13;;
13252;SDS011;6693;54.370;10.132;2022-07-23T01:34:51;3.50;;;2.22;;
13252;SDS011;6693;54.370;10.132;2022-07-23T01:36:52;3.25;;;2.42;;
13252;SDS011;6693;54.370;10.132;2022-07-23T01:38:55;3.83;;;1.92;;
13252;SDS011;6693;54.370;10.132;2022-07-23T01:40:57;4.30;;;2.25;;
13252;SDS011;6693;54.370;10.132;2022-07-23T01:42:59;3.38;;;2.10;;
13252;SDS011;6693;54.370;10.132;2022-07-23T01:45:00;5.18;;;2.40;;
13252;SDS011;6693;54.370;10.132;2022-07-23T01:47:02;3.97;;;2.33;;
13252;SDS011;6693;54.370;10.132;2022-07-23T01:49:04;4.28;;;2.13;;
13252;SDS011;6693;54.370;10.132;2022-07-23T01:51:05;2.20;;;2.00;;
13252;SDS011;6693;54.370;10.132;2022-07-23T01:53:07;3.53;;;2.20;;
13252;SDS011;6693;54.370;10.132;2022-07-23T01:55:10;3.25;;;2.10;;
13252;SDS011;6693;54.370;10.132;2022-07-23T01:57:11;5.03;;;2.25;;
13252;SDS011;6693;54.370;10.132;2022-07-23T01:59:13;3.55;;;1.88;;
13252;SDS011;6693;54.370;10.132;2022-07-23T02:01:15;2.47;;;2.08;;
13252;SDS011;6693;54.370;10.132;2022-07-23T02:03:16;4.03;;;2.05;;
13252;SDS011;6693;54.370;10.132;2022-07-23T02:05:18;3.28;;;2.20;;
13252;SDS011;6693;54.370;10.132;2022-07-23T02:07:20;3.22;;;2.30;;
13252;SDS011;6693;54.370;10.132;2022-07-23T02:09:21;4.13;;;2.28;;
13252;SDS011;6693;54.370;10.132;2022-07-23T02:11:24;4.43;;;2.10;;
13252;SDS011;6693;54.370;10.132;2022-07-23T02:13:26;2.78;;;2.10;;
13252;SDS011;6693;54.370;10.132;2022-07-23T02:15:29;2.65;;;2.38;;
13252;SDS011;6693;54.370;10.132;2022-07-23T02:17:30;5.30;;;2.40;;
13252;SDS011;6693;54.370;10.132;2022-07-23T02:19:32;2.92;;;2.72;;
13252;SDS011;6693;54.370;10.132;2022-07-23T02:21:34;3.92;;;2.33;;
13252;SDS011;6693;54.370;10.132;2022-07-23T02:23:35;5.47;;;4.00;;
13252;SDS011;6693;54.370;10.132;2022-07-23T02:25:37;3.97;;;2.70;;
13252;SDS011;6693;54.370;10.132;2022-07-23T02:27:40;3.58;;;2.35;;
13252;SDS011;6693;54.370;10.132;2022-07-23T02:29:42;3.08;;;2.30;;
13252;SDS011;6693;54.370;10.132;2022-07-23T02:31:44;3.13;;;2.70;;
13252;SDS011;6693;54.370;10.132;2022-07-23T02:33:46;6.13;;;2.42;;
13252;SDS011;6693;54.370;10.132;2022-07-23T02:35:48;5.00;;;2.45;;
13252;SDS011;6693;54.370;10.132;2022-07-23T02:37:49;3.97;;;2.42;;
13252;SDS011;6693;54.370;10.132;2022-07-23T02:39:51;4.70;;;2.20;;
13252;SDS011;6693;54.370;10.132;2022-07-23T02:41:53;6.78;;;2.35;;
13252;SDS011;6693;54.370;10.132;2022-07-23T02:43:55;6.43;;;2.40;;
13252;SDS011;6693;54.370;10.132;2022-07-23T02:45:57;3.15;;;2.05;;
13252;SDS011;6693;54.370;10.132;2022-07-23T02:47:59;6.13;;;2.42;;
13252;SDS011;6693;54.370;10.132;2022-07-23T02:50:00;2.50;;;2.15;;
13252;SDS011;6693;54.370;10.132;2022-07-23T02:52:03;3.90;;;2.10;;
13252;SDS011;6693;54.370;10.132;2022-07-23T02:54:05;4.68;;;2.60;;
13252;SDS011;6693;54.370;10.132;2022-07-23T02:56:07;3.42;;;2.20;;
13252;SDS011;6693;54.370;10.132;2022-07-23T02:58:09;5.65;;;2.55;;
13252;SDS011;6693;54.370;10.132;2022-07-23T03:00:12;5.35;;;2.67;;
13252;SDS011;6693;54.370;10.132;2022-07-23T03:02:14;4.80;;;2.95;;
13252;SDS011;6693;54.370;10.132;2022-07-23T03:04:16;3.13;;;2.60;;
13252;SDS011;6693;54.370;10.132;2022-07-23T03:06:17;3.05;;;2.65;;
13252;SDS011;6693;54.370;10.132;2022-07-23T03:08:19;3.72;;;2.70;;
13252;SDS011;6693;54.370;10.132;2022-07-23T03:10:21;5.22;;;2.70;;
13252;SDS011;6693;54.370;10.132;2022-07-23T03:12:22;3.40;;;2.30;;
13252;SDS011;6693;54.370;10.132;2022-07-23T03:14:24;4.75;;;2.67;;
13252;SDS011;6693;54.370;10.132;2022-07-23T03:16:29;4.32;;;2.53;;
13252;SDS011;6693;54.370;10.132;2022-07-23T03:18:30;3.85;;;2.40;;
13252;SDS011;6693;54.370;10.132;2022-07-23T03:20:32;4.38;;;2.58;;
13252;SDS011;6693;54.370;10.132;2022-07-23T03:22:33;4.53;;;2.75;;
13252;SDS011;6693;54.370;10.132;2022-07-23T03:24:35;4.38;;;2.55;;
13252;SDS011;6693;54.370;10.132;2022-07-23T03:26:55;3.95;;;2.60;;
13252;SDS011;6693;54.370;10.132;2022-07-23T03:28:57;3.28;;;2.50;;
13252;SDS011;6693;54.370;10.132;2022-07-23T03:30:58;4.40;;;2.63;;
13252;SDS011;6693;54.370;10.132;2022-07-23T03:33:01;4.00;;;2.53;;
13252;SDS011;6693;54.370;10.132;2022-07-23T03:35:03;4.43;;;2.60;;
13252;SDS011;6693;54.370;10.132;2022-07-23T03:37:06;3.50;;;2.33;;
13252;SDS011;6693;54.370;10.132;2022-07-23T03:39:07;3.00;;;2.50;;
13252;SDS011;6693;54.370;10.132;2022-07-23T03:41:09;3.83;;;2.30;;
13252;SDS011;6693;54.370;10.132;2022-07-23T03:43:11;3.13;;;2.78;;
13252;SDS011;6693;54.370;10.132;2022-07-23T03:45:12;5.70;;;2.60;;
13252;SDS011;6693;54.370;10.132;2022-07-23T03:47:14;8.13;;;2.83;;
13252;SDS011;6693;54.370;10.132;2022-07-23T03:49:19;4.82;;;2.70;;
13252;SDS011;6693;54.370;10.132;2022-07-23T03:51:21;2.55;;;2.35;;
13252;SDS011;6693;54.370;10.132;2022-07-23T03:53:22;5.45;;;2.67;;
13252;SDS011;6693;54.370;10.132;2022-07-23T03:55:24;4.00;;;2.90;;
13252;SDS011;6693;54.370;10.132;2022-07-23T03:57:25;3.58;;;2.65;;
13252;SDS011;6693;54.370;10.132;2022-07-23T03:59:27;7.03;;;2.80;;
13252;SDS011;6693;54.370;10.132;2022-07-23T04:01:29;4.07;;;2.38;;
13252;SDS011;6693;54.370;10.132;2022-07-23T04:03:31;3.88;;;2.50;;
13252;SDS011;6693;54.370;10.132;2022-07-23T04:05:34;3.53;;;2.50;;
13252;SDS011;6693;54.370;10.132;2022-07-23T04:07:35;5.03;;;2.67;;
13252;SDS011;6693;54.370;10.132;2022-07-23T04:09:37;4.20;;;2.50;;
13252;SDS011;6693;54.370;10.132;2022-07-23T04:11:40;2.60;;;2.22;;
13252;SDS011;6693;54.370;10.132;2022-07-23T04:13:42;5.50;;;2.67;;
13252;SDS011;6693;54.370;10.132;2022-07-23T04:15:44;3.72;;;2.30;;
13252;SDS011;6693;54.370;10.132;2022-07-23T04:17:46;2.95;;;2.50;;
13252;SDS011;6693;54.370;10.132;2022-07-23T04:19:47;3.95;;;2.35;;
13252;SDS011;6693;54.370;10.132;2022-07-23T04:21:50;4.00;;;2.38;;
13252;SDS011;6693;54.370;10.132;2022-07-23T04:23:52;3.40;;;2.35;;
13252;SDS011;6693;54.370;10.132;2022-07-23T04:25:54;5.60;;;2.70;;
13252;SDS011;6693;54.370;10.132;2022-07-23T04:27:55;4.93;;;2.67;;
13252;SDS011;6693;54.370;10.132;2022-07-23T04:29:57;6.85;;;2.75;;
13252;SDS011;6693;54.370;10.132;2022-07-23T04:31:59;5.95;;;2.50;;
13252;SDS011;6693;54.370;10.132;2022-07-23T04:34:01;3.03;;;2.30;;
13252;SDS011;6693;54.370;10.132;2022-07-23T04:36:03;3.30;;;2.70;;
13252;SDS011;6693;54.370;10.132;2022-07-23T04:38:06;5.70;;;3.00;;
13252;SDS011;6693;54.370;10.132;2022-07-23T04:40:08;3.88;;;2.65;;
13252;SDS011;6693;54.370;10.132;2022-07-23T04:42:11;4.40;;;2.58;;
13252;SDS011;6693;54.370;10.132;2022-07-23T04:44:12;3.70;;;2.75;;
13252;SDS011;6693;54.370;10.132;2022-07-23T04:46:14;2.30;;;2.10;;
13252;SDS011;6693;54.370;10.132;2022-07-23T04:48:16;3.72;;;2.53;;
13252;SDS011;6693;54.370;10.132;2022-07-23T04:50:18;4.25;;;2.67;;
13252;SDS011;6693;54.370;10.132;2022-07-23T04:52:21;4.43;;;3.08;;
13252;SDS011;6693;54.370;10.132;2022-07-23T04:54:24;5.38;;;2.80;;
13252;SDS011;6693;54.370;10.132;2022-07-23T04:56:26;5.25;;;3.20;;
13252;SDS011;6693;54.370;10.132;2022-07-23T04:58:27;5.57;;;3.00;;
13252;SDS011;6693;54.370;10.132;2022-07-23T05:00:29;5.72;;;2.83;;
13252;SDS011;6693;54.370;10.132;2022-07-23T05:02:30;6.40;;;3.47;;
13252;SDS011;6693;54.370;10.132;2022-07-23T05:04:32;5.30;;;2.75;;
13252;SDS011;6693;54.370;10.132;2022-07-23T05:06:34;4.50;;;2.85;;
13252;SDS011;6693;54.370;10.132;2022-07-23T05:08:36;4.78;;;3.30;;
13252;SDS011;6693;54.370;10.132;2022-07-23T05:10:39;4.65;;;2.72;;
13252;SDS011;6693;54.370;10.132;2022-07-23T05:12:40;4.45;;;2.63;;
13252;SDS011;6693;54.370;10.132;2022-07-23T05:14:42;2.75;;;2.50;;
13252;SDS011;6693;54.370;10.132;2022-07-23T05:16:43;5.10;;;2.70;;
13252;SDS011;6693;54.370;10.132;2022-07-23T05:18:45;4.35;;;2.60;;
13252;SDS011;6693;54.370;10.132;2022-07-23T05:20:47;5.20;;;2.80;;
13252;SDS011;6693;54.370;10.132;2022-07-23T05:22:48;3.58;;;2.50;;
13252;SDS011;6693;54.370;10.132;2022-07-23T05:24:50;4.93;;;2.78;;
13252;SDS011;6693;54.370;10.132;2022-07-23T05:26:53;4.07;;;2.80;;
13252;SDS011;6693;54.370;10.132;2022-07-23T05:28:55;4.40;;;2.63;;
13252;SDS011;6693;54.370;10.132;2022-07-23T05:30:57;5.03;;;3.03;;
13252;SDS011;6693;54.370;10.132;2022-07-23T05:32:58;5.32;;;2.92;;
13252;SDS011;6693;54.370;10.132;2022-07-23T05:35:00;4.07;;;2.50;;
13252;SDS011;6693;54.370;10.132;2022-07-23T05:37:01;4.60;;;3.00;;
13252;SDS011;6693;54.370;10.132;2022-07-23T05:39:03;4.65;;;2.50;;
13252;SDS011;6693;54.370;10.132;2022-07-23T05:41:05;4.85;;;2.50;;
13252;SDS011;6693;54.370;10.132;2022-07-23T05:43:08;5.57;;;2.60;;
13252;SDS011;6693;54.370;10.132;2022-07-23T05:45:10;3.92;;;2.45;;
13252;SDS011;6693;54.370;10.132;2022-07-23T05:47:12;3.97;;;2.60;;
13252;SDS011;6693;54.370;10.132;2022-07-23T05:49:14;5.10;;;2.40;;
13252;SDS011;6693;54.370;10.132;2022-07-23T05:51:18;3.30;;;2.13;;
13252;SDS011;6693;54.370;10.132;2022-07-23T05:53:20;3.78;;;2.40;;
13252;SDS011;6693;54.370;10.132;2022-07-23T05:55:22;4.72;;;2.40;;
13252;SDS011;6693;54.370;10.132;2022-07-23T05:57:24;4.00;;;2.70;;
13252;SDS011;6693;54.370;10.132;2022-07-23T05:59:27;3.85;;;2.60;;
13252;SDS011;6693;54.370;10.132;2022-07-23T06:01:28;6.40;;;2.90;;
13252;SDS011;6693;54.370;10.132;2022-07-23T06:03:30;4.43;;;2.45;;
13252;SDS011;6693;54.370;10.132;2022-07-23T06:05:31;4.07;;;2.10;;
13252;SDS011;6693;54.370;10.132;2022-07-23T06:07:33;3.15;;;2.10;;
13252;SDS011;6693;54.370;10.132;2022-07-23T06:09:35;3.67;;;2.17;;
13252;SDS011;6693;54.370;10.132;2022-07-23T06:11:37;3.10;;;1.92;;
13252;SDS011;6693;54.370;10.132;2022-07-23T06:13:38;4.30;;;2.20;;
13252;SDS011;6693;54.370;10.132;2022-07-23T06:15:41;2.88;;;2.10;;
13252;SDS011;6693;54.370;10.132;2022-07-23T06:17:43;5.47;;;2.40;;
13252;SDS011;6693;54.370;10.132;2022-07-23T06:19:45;5.25;;;2.40;;
13252;SDS011;6693;54.370;10.132;2022-07-23T06:21:46;2.03;;;1.90;;
13252;SDS011;6693;54.370;10.132;2022-07-23T06:23:48;2.83;;;2.17;;
13252;SDS011;6693;54.370;10.132;2022-07-23T06:25:50;4.97;;;2.28;;
13252;SDS011;6693;54.370;10.132;2022-07-23T06:27:51;5.80;;;2.22;;
13252;SDS011;6693;54.370;10.132;2022-07-23T06:29:53;3.70;;;1.90;;
13252;SDS011;6693;54.370;10.132;2022-07-23T06:31:56;3.10;;;2.05;;
13252;SDS011;6693;54.370;10.132;2022-07-23T06:33:57;3.75;;;2.08;;
13252;SDS011;6693;54.370;10.132;2022-07-23T06:35:59;3.70;;;2.38;;
13252;SDS011;6693;54.370;10.132;2022-07-23T06:38:01;2.85;;;2.38;;
13252;SDS011;6693;54.370;10.132;2022-07-23T06:40:03;4.60;;;2.25;;
13252;SDS011;6693;54.370;10.132;2022-07-23T06:42:05;4.30;;;2.45;;
13252;SDS011;6693;54.370;10.132;2022-07-23T06:44:07;4.72;;;2.70;;
13252;SDS011;6693;54.370;10.132;2022-07-23T06:46:08;4.65;;;2.50;;
13252;SDS011;6693;54.370;10.132;2022-07-23T06:48:11;3.58;;;2.63;;
13252;SDS011;6693;54.370;10.132;2022-07-23T06:50:13;3.70;;;2.40;;
13252;SDS011;6693;54.370;10.132;2022-07-23T06:52:15;4.32;;;2.20;;
13252;SDS011;6693;54.370;10.132;2022-07-23T06:54:16;4.80;;;2.40;;
13252;SDS011;6693;54.370;10.132;2022-07-23T06:56:18;4.60;;;2.63;;
13252;SDS011;6693;54.370;10.132;2022-07-23T06:58:20;8.68;;;5.25;;
13252;SDS011;6693;54.370;10.132;2022-07-23T07:00:21;8.18;;;7.38;;
13252;SDS011;6693;54.370;10.132;2022-07-23T07:02:23;5.13;;;3.50;;
13252;SDS011;6693;54.370;10.132;2022-07-23T07:04:26;2.67;;;2.40;;
13252;SDS011;6693;54.370;10.132;2022-07-23T07:06:28;2.75;;;2.10;;
13252;SDS011;6693;54.370;10.132;2022-07-23T07:08:29;5.30;;;2.30;;
13252;SDS011;6693;54.370;10.132;2022-07-23T07:10:31;5.20;;;3.75;;
13252;SDS011;6693;54.370;10.132;2022-07-23T07:12:33;3.67;;;2.70;;
13252;SDS011;6693;54.370;10.132;2022-07-23T07:14:34;5.68;;;3.15;;
13252;SDS011;6693;54.370;10.132;2022-07-23T07:16:36;3.95;;;2.90;;
13252;SDS011;6693;54.370;10.132;2022-07-23T07:18:38;2.55;;;2.35;;
13252;SDS011;6693;54.370;10.132;2022-07-23T07:20:41;3.85;;;1.95;;
13252;SDS011;6693;54.370;10.132;2022-07-23T07:22:42;2.42;;;2.10;;
13252;SDS011;6693;54.370;10.132;2022-07-23T07:24:44;7.45;;;2.60;;
13252;SDS011;6693;54.370;10.132;2022-07-23T07:26:45;5.35;;;2.40;;
13252;SDS011;6693;54.370;10.132;2022-07-23T07:28:47;5.72;;;2.33;;
13252;SDS011;6693;54.370;10.132;2022-07-23T07:30:49;3.65;;;2.30;;
13252;SDS011;6693;54.370;10.132;2022-07-23T07:32:50;4.28;;;2.05;;
13252;SDS011;6693;54.370;10.132;2022-07-23T07:34:52;3.70;;;2.15;;
13252;SDS011;6693;54.370;10.132;2022-07-23T07:36:55;3.97;;;2.15;;
13252;SDS011;6693;54.370;10.132;2022-07-23T07:38:57;3.75;;;2.90;;
13252;SDS011;6693;54.370;10.132;2022-07-23T07:40:58;2.00;;;1.90;;
13252;SDS011;6693;54.370;10.132;2022-07-23T07:43:00;3.03;;;2.80;;
13252;SDS011;6693;54.370;10.132;2022-07-23T07:45:03;3.67;;;2.30;;
13252;SDS011;6693;54.370;10.132;2022-07-23T07:47:05;2.00;;;1.90;;
13252;SDS011;6693;54.370;10.132;2022-07-23T07:49:07;6.75;;;3.40;;
13252;SDS011;6693;54.370;10.132;2022-07-23T07:51:09;5.25;;;2.80;;
13252;SDS011;6693;54.370;10.132;2022-07-23T07:53:12;2.58;;;2.38;;
13252;SDS011;6693;54.370;10.132;2022-07-23T07:55:14;2.72;;;2.42;;
13252;SDS011;6693;54.370;10.132;2022-07-23T07:57:16;2.80;;;2.22;;
13252;SDS011;6693;54.370;10.132;2022-07-23T07:59:18;5.70;;;2.38;;
13252;SDS011;6693;54.370;10.132;2022-07-23T08:01:19;2.65;;;2.00;;
13252;SDS011;6693;54.370;10.132;2022-07-23T08:03:21;3.47;;;2.30;;
13252;SDS011;6693;54.370;10.132;2022-07-23T08:05:23;4.38;;;2.50;;
13252;SDS011;6693;54.370;10.132;2022-07-23T08:07:26;3.42;;;2.42;;
13252;SDS011;6693;54.370;10.132;2022-07-23T08:09:29;4.35;;;2.85;;
13252;SDS011;6693;54.370;10.132;2022-07-23T08:11:31;3.35;;;2.08;;
13252;SDS011;6693;54.370;10.132;2022-07-23T08:13:32;6.50;;;2.63;;
13252;SDS011;6693;54.370;10.132;2022-07-23T08:15:34;2.95;;;2.10;;
13252;SDS011;6693;54.370;10.132;2022-07-23T08:17:36;3.53;;;2.10;;
13252;SDS011;6693;54.370;10.132;2022-07-23T08:19:38;2.55;;;2.00;;
13252;SDS011;6693;54.370;10.132;2022-07-23T08:21:39;4.85;;;2.13;;
13252;SDS011;6693;54.370;10.132;2022-07-23T08:23:41;3.15;;;1.90;;
13252;SDS011;6693;54.370;10.132;2022-07-23T08:25:44;3.75;;;1.60;;
13252;SDS011;6693;54.370;10.132;2022-07-23T08:27:46;4.50;;;2.20;;
13252;SDS011;6693;54.370;10.132;2022-07-23T08:29:49;4.50;;;2.00;;
13252;SDS011;6693;54.370;10.132;2022-07-23T08:31:50;2.47;;;2.10;;
13252;SDS011;6693;54.370;10.132;2022-07-23T08:33:52;2.03;;;1.73;;
13252;SDS011;6693;54.370;10.132;2022-07-23T08:35:55;2.60;;;1.65;;
13252;SDS011;6693;54.370;10.132;2022-07-23T08:37:57;3.00;;;1.70;;
13252;SDS011;6693;54.370;10.132;2022-07-23T08:39:59;1.83;;;1.50;;
13252;SDS011;6693;54.370;10.132;2022-07-23T08:42:02;4.60;;;1.98;;
13252;SDS011;6693;54.370;10.132;2022-07-23T08:44:05;3.60;;;2.00;;
13252;SDS011;6693;54.370;10.132;2022-07-23T08:46:08;6.22;;;2.17;;
13252;SDS011;6693;54.370;10.132;2022-07-23T08:48:11;2.67;;;1.75;;
13252;SDS011;6693;54.370;10.132;2022-07-23T08:50:13;3.40;;;1.55;;
13252;SDS011;6693;54.370;10.132;2022-07-23T08:52:15;3.17;;;1.80;;
13252;SDS011;6693;54.370;10.132;2022-07-23T08:54:17;3.30;;;1.63;;
13252;SDS011;6693;54.370;10.132;2022-07-23T08:56:19;2.10;;;1.60;;
13252;SDS011;6693;54.370;10.132;2022-07-23T08:58:23;3.85;;;1.90;;
13252;SDS011;6693;54.370;10.132;2022-07-23T09:00:25;1.30;;;1.15;;
13252;SDS011;6693;54.370;10.132;2022-07-23T09:02:27;2.40;;;1.67;;
13252;SDS011;6693;54.370;10.132;2022-07-23T09:04:29;2.60;;;1.80;;
13252;SDS011;6693;54.370;10.132;2022-07-23T09:06:32;1.95;;;1.55;;
13252;SDS011;6693;54.370;10.132;2022-07-23T09:08:34;4.32;;;1.73;;
13252;SDS011;6693;54.370;10.132;2022-07-23T09:10:48;2.35;;;1.73;;
13252;SDS011;6693;54.370;10.132;2022-07-23T09:12:51;2.58;;;1.20;;
13252;SDS011;6693;54.370;10.132;2022-07-23T09:14:54;1.40;;;1.30;;
13252;SDS011;6693;54.370;10.132;2022-07-23T09:16:56;1.35;;;1.25;;
13252;SDS011;6693;54.370;10.132;2022-07-23T09:18:58;1.65;;;1.10;;
13252;SDS011;6693;54.370;10.132;2022-07-23T09:21:06;1.25;;;1.15;;
13252;SDS011;6693;54.370;10.132;2022-07-23T09:23:12;2.13;;;0.90;;
13252;SDS011;6693;54.370;10.132;2022-07-23T09:25:15;1.40;;;1.05;;
13252;SDS011;6693;54.370;10.132;2022-07-23T09:27:18;1.65;;;1.35;;
13252;SDS011;6693;54.370;10.132;2022-07-23T09:29:20;1.40;;;1.10;;
13252;SDS011;6693;54.370;10.132;2022-07-23T09:31:25;1.52;;;1.20;;
13252;SDS011;6693;54.370;10.132;2022-07-23T09:33:32;2.13;;;1.23;;
13252;SDS011;6693;54.370;10.132;2022-07-23T09:35:47;2.70;;;1.27;;
13252;SDS011;6693;54.370;10.132;2022-07-23T09:38:00;2.75;;;1.38;;
13252;SDS011;6693;54.370;10.132;2022-07-23T09:40:03;1.33;;;1.10;;
13252;SDS011;6693;54.370;10.132;2022-07-23T09:42:12;2.20;;;1.48;;
13252;SDS011;6693;54.370;10.132;2022-07-23T09:44:16;3.78;;;1.50;;
13252;SDS011;6693;54.370;10.132;2022-07-23T09:46:19;1.00;;;0.90;;
13252;SDS011;6693;54.370;10.132;2022-07-23T09:48:25;1.38;;;1.27;;
13252;SDS011;6693;54.370;10.132;2022-07-23T09:50:27;1.38;;;1.20;;
13252;SDS011;6693;54.370;10.132;2022-07-23T09:52:29;2.05;;;1.27;;
13252;SDS011;6693;54.370;10.132;2022-07-23T09:54:32;1.52;;;1.10;;
13252;SDS011;6693;54.370;10.132;2022-07-23T09:56:35;1.45;;;1.05;;
13252;SDS011;6693;54.370;10.132;2022-07-23T09:58:37;2.05;;;1.17;;
13252;SDS011;6693;54.370;10.132;2022-07-23T10:00:48;2.30;;;1.35;;
13252;SDS011;6693;54.370;10.132;2022-07-23T10:02:51;1.52;;;1.30;;
13252;SDS011;6693;54.370;10.132;2022-07-23T10:04:55;1.63;;;1.52;;
13252;SDS011;6693;54.370;10.132;2022-07-23T10:06:58;2.47;;;1.50;;
13252;SDS011;6693;54.370;10.132;2022-07-23T10:09:00;2.03;;;1.40;;
13252;SDS011;6693;54.370;10.132;2022-07-23T10:11:03;2.13;;;1.50;;
13252;SDS011;6693;54.370;10.132;2022-07-23T10:13:05;2.60;;;1.38;;
13252;SDS011;6693;54.370;10.132;2022-07-23T10:15:25;1.25;;;1.15;;
13252;SDS011;6693;54.370;10.132;2022-07-23T10:17:27;2.53;;;1.40;;
13252;SDS011;6693;54.370;10.132;2022-07-23T10:19:29;5.28;;;1.48;;
13252;SDS011;6693;54.370;10.132;2022-07-23T10:21:37;1.92;;;1.25;;
13252;SDS011;6693;54.370;10.132;2022-07-23T10:23:45;0.85;;;0.85;;
13252;SDS011;6693;54.370;10.132;2022-07-23T10:26:03;1.35;;;1.20;;
13252;SDS011;6693;54.370;10.132;2022-07-23T10:28:16;1.48;;;1.08;;
13252;SDS011;6693;54.370;10.132;2022-07-23T10:30:33;3.45;;;1.38;;
13252;SDS011;6693;54.370;10.132;2022-07-23T10:32:44;2.45;;;1.50;;
13252;SDS011;6693;54.370;10.132;2022-07-23T10:34:55;2.30;;;1.50;;
13252;SDS011;6693;54.370;10.132;2022-07-23T10:37:07;2.33;;;1.38;;
13252;SDS011;6693;54.370;10.132;2022-07-23T10:39:17;1.23;;;1.15;;
13252;SDS011;6693;54.370;10.132;2022-07-23T10:41:32;2.33;;;1.65;;
13252;SDS011;6693;54.370;10.132;2022-07-23T10:43:35;2.35;;;1.60;;
13252;SDS011;6693;54.370;10.132;2022-07-23T10:45:37;1.45;;;1.35;;
13252;SDS011;6693;54.370;10.132;2022-07-23T10:47:39;1.83;;;1.50;;
13252;SDS011;6693;54.370;10.132;2022-07-23T10:49:41;1.98;;;1.52;;
13252;SDS011;6693;54.370;10.132;2022-07-23T10:54:21;3.17;;;1.70;;
13252;SDS011;6693;54.370;10.132;2022-07-23T10:58:50;2.47;;;1.48;;
13252;SDS011;6693;54.370;10.132;2022-07-23T11:00:53;2.25;;;1.30;;
13252;SDS011;6693;54.370;10.132;2022-07-23T11:02:55;2.72;;;1.70;;
13252;SDS011;6693;54.370;10.132;2022-07-23T11:04:59;3.78;;;1.65;;
13252;SDS011;6693;54.370;10.132;2022-07-23T11:07:08;2.67;;;1.50;;
13252;SDS011;6693;54.370;10.132;2022-07-23T11:09:25;3.40;;;1.77;;
13252;SDS011;6693;54.370;10.132;2022-07-23T11:11:27;3.53;;;1.60;;
13252;SDS011;6693;54.370;10.132;2022-07-23T11:13:36;5.43;;;1.90;;
13252;SDS011;6693;54.370;10.132;2022-07-23T11:21:03;3.42;;;1.98;;
13252;SDS011;6693;54.370;10.132;2022-07-23T11:23:59;2.97;;;1.42;;
13252;SDS011;6693;54.370;10.132;2022-07-23T11:26:04;2.20;;;1.70;;
13252;SDS011;6693;54.370;10.132;2022-07-23T11:28:10;1.83;;;1.52;;
13252;SDS011;6693;54.370;10.132;2022-07-23T11:32:39;3.33;;;1.70;;
13252;SDS011;6693;54.370;10.132;2022-07-23T11:34:42;2.33;;;1.60;;
13252;SDS011;6693;54.370;10.132;2022-07-23T11:36:49;3.92;;;1.80;;
13252;SDS011;6693;54.370;10.132;2022-07-23T11:38:51;1.88;;;1.50;;
13252;SDS011;6693;54.370;10.132;2022-07-23T11:40:55;2.20;;;1.50;;
13252;SDS011;6693;54.370;10.132;2022-07-23T11:42:59;4.40;;;2.08;;
13252;SDS011;6693;54.370;10.132;2022-07-23T11:45:05;2.70;;;1.67;;
13252;SDS011;6693;54.370;10.132;2022-07-23T11:47:08;2.83;;;1.90;;
13252;SDS011;6693;54.370;10.132;2022-07-23T11:49:11;3.75;;;1.90;;
13252;SDS011;6693;54.370;10.132;2022-07-23T11:51:24;1.80;;;1.70;;
13252;SDS011;6693;54.370;10.132;2022-07-23T11:53:26;2.53;;;1.90;;
13252;SDS011;6693;54.370;10.132;2022-07-23T11:55:30;3.90;;;1.77;;
13252;SDS011;6693;54.370;10.132;2022-07-23T11:57:33;2.55;;;1.67;;
13252;SDS011;6693;54.370;10.132;2022-07-23T11:59:37;4.70;;;1.70;;
13252;SDS011;6693;54.370;10.132;2022-07-23T12:01:54;2.53;;;2.00;;
13252;SDS011;6693;54.370;10.132;2022-07-23T12:03:57;3.22;;;1.77;;
13252;SDS011;6693;54.370;10.132;2022-07-23T12:05:59;3.03;;;1.75;;
13252;SDS011;6693;54.370;10.132;2022-07-23T12:08:02;3.33;;;1.67;;
13252;SDS011;6693;54.370;10.132;2022-07-23T12:10:09;1.77;;;1.60;;
13252;SDS011;6693;54.370;10.132;2022-07-23T12:12:12;2.90;;;1.65;;
13252;SDS011;6693;54.370;10.132;2022-07-23T12:14:14;2.08;;;1.88;;
13252;SDS011;6693;54.370;10.132;2022-07-23T12:16:17;1.80;;;1.50;;
13252;SDS011;6693;54.370;10.132;2022-07-23T12:18:19;1.48;;;1.20;;
13252;SDS011;6693;54.370;10.132;2022-07-23T12:20:23;2.00;;;1.50;;
13252;SDS011;6693;54.370;10.132;2022-07-23T12:22:32;2.50;;;1.40;;
13252;SDS011;6693;54.370;10.132;2022-07-23T12:27:09;3.25;;;1.90;;
13252;SDS011;6693;54.370;10.132;2022-07-23T12:29:11;1.40;;;1.25;;
13252;SDS011;6693;54.370;10.132;2022-07-23T12:31:12;2.65;;;1.70;;
13252;SDS011;6693;54.370;10.132;2022-07-23T12:33:24;1.52;;;1.40;;
13252;SDS011;6693;54.370;10.132;2022-07-23T12:35:31;1.40;;;1.30;;
13252;SDS011;6693;54.370;10.132;2022-07-23T12:37:35;2.78;;;1.33;;